sensor_id;sensor_type;location;lat;lon;timestamp;P1;durP1;ratioP1;P2;durP2;ratioP2
75847;SDS011;73195;47.532;19.082;2024-01-06T00:00:06;29.77;;;14.63;;
75847;SDS011;73195;47.532;19.082;2024-01-06T00:02:37;31.60;;;15.32;;
75847;SDS011;73195;47.532;19.082;2024-01-06T00:05:05;31.95;;;16.12;;
75847;SDS011;73195;47.532;19.082;2024-01-06T00:07:32;32.22;;;15.32;;
75847;SDS011;73195;47.532;19.082;2024-01-06T00:10:00;32.08;;;15.77;;
75847;SDS011;73195;47.532;19.082;2024-01-06T00:12:28;29.30;;;14.83;;
75847;SDS011;73195;47.532;19.082;2024-01-06T00:14:55;29.65;;;14.73;;
75847;SDS011;73195;47.532;19.082;2024-01-06T00:17:22;30.37;;;15.25;;
75847;SDS011;73195;47.532;19.082;2024-01-06T00:19:50;31.55;;;15.65;;
75847;SDS011;73195;47.532;19.082;2024-01-06T00:22:17;30.95;;;15.20;;
75847;SDS011;73195;47.532;19.082;2024-01-06T00:24:44;31.37;;;15.53;;
75847;SDS011;73195;47.532;19.082;2024-01-06T00:27:12;29.37;;;14.48;;
75847;SDS011;73195;47.532;19.082;2024-01-06T00:29:42;30.12;;;15.68;;
75847;SDS011;73195;47.532;19.082;2024-01-06T00:32:09;31.55;;;15.27;;
75847;SDS011;73195;47.532;19.082;2024-01-06T00:34:36;32.45;;;15.60;;
75847;SDS011;73195;47.532;19.082;2024-01-06T00:37:03;31.27;;;15.27;;
75847;SDS011;73195;47.532;19.082;2024-01-06T00:39:30;29.98;;;15.10;;
75847;SDS011;73195;47.532;19.082;2024-01-06T00:41:57;30.00;;;15.18;;
75847;SDS011;73195;47.532;19.082;2024-01-06T00:44:24;31.87;;;15.10;;
75847;SDS011;73195;47.532;19.082;2024-01-06T00:46:53;30.08;;;14.82;;
75847;SDS011;73195;47.532;19.082;2024-01-06T00:49:20;27.27;;;15.13;;
75847;SDS011;73195;47.532;19.082;2024-01-06T00:51:48;31.33;;;15.93;;
75847;SDS011;73195;47.532;19.082;2024-01-06T00:54:16;28.20;;;15.55;;
75847;SDS011;73195;47.532;19.082;2024-01-06T00:56:43;31.48;;;15.00;;
75847;SDS011;73195;47.532;19.082;2024-01-06T00:59:10;28.92;;;14.60;;
75847;SDS011;73195;47.532;19.082;2024-01-06T01:01:37;28.90;;;14.60;;
75847;SDS011;73195;47.532;19.082;2024-01-06T01:04:06;30.12;;;15.18;;
75847;SDS011;73195;47.532;19.082;2024-01-06T01:06:33;30.27;;;15.13;;
75847;SDS011;73195;47.532;19.082;2024-01-06T01:09:00;30.85;;;14.98;;
75847;SDS011;73195;47.532;19.082;2024-01-06T01:11:27;27.87;;;14.35;;
75847;SDS011;73195;47.532;19.082;2024-01-06T01:13:55;28.53;;;14.80;;
75847;SDS011;73195;47.532;19.082;2024-01-06T01:16:22;26.65;;;14.60;;
75847;SDS011;73195;47.532;19.082;2024-01-06T01:18:49;27.73;;;14.95;;
75847;SDS011;73195;47.532;19.082;2024-01-06T01:21:17;28.75;;;14.75;;
75847;SDS011;73195;47.532;19.082;2024-01-06T01:23:44;29.48;;;15.48;;
75847;SDS011;73195;47.532;19.082;2024-01-06T01:26:12;29.97;;;14.93;;
75847;SDS011;73195;47.532;19.082;2024-01-06T01:28:39;31.20;;;14.82;;
75847;SDS011;73195;47.532;19.082;2024-01-06T01:31:06;31.10;;;15.07;;
75847;SDS011;73195;47.532;19.082;2024-01-06T01:33:33;29.00;;;14.40;;
75847;SDS011;73195;47.532;19.082;2024-01-06T01:36:01;26.62;;;14.48;;
75847;SDS011;73195;47.532;19.082;2024-01-06T01:38:29;27.57;;;14.23;;
75847;SDS011;73195;47.532;19.082;2024-01-06T01:40:57;28.08;;;14.68;;
75847;SDS011;73195;47.532;19.082;2024-01-06T01:43:24;28.77;;;15.05;;
75847;SDS011;73195;47.532;19.082;2024-01-06T01:45:54;31.90;;;14.85;;
75847;SDS011;73195;47.532;19.082;2024-01-06T01:48:22;30.30;;;14.82;;
75847;SDS011;73195;47.532;19.082;2024-01-06T01:50:50;28.20;;;14.30;;
75847;SDS011;73195;47.532;19.082;2024-01-06T01:53:18;29.67;;;15.10;;
75847;SDS011;73195;47.532;19.082;2024-01-06T01:55:48;32.83;;;15.02;;
75847;SDS011;73195;47.532;19.082;2024-01-06T01:58:15;30.08;;;15.38;;
75847;SDS011;73195;47.532;19.082;2024-01-06T02:00:42;28.33;;;14.30;;
75847;SDS011;73195;47.532;19.082;2024-01-06T02:03:10;31.53;;;14.57;;
75847;SDS011;73195;47.532;19.082;2024-01-06T02:05:40;29.12;;;15.00;;
75847;SDS011;73195;47.532;19.082;2024-01-06T02:08:07;29.25;;;15.23;;
75847;SDS011;73195;47.532;19.082;2024-01-06T02:10:33;30.48;;;15.15;;
75847;SDS011;73195;47.532;19.082;2024-01-06T02:13:08;28.42;;;14.63;;
75847;SDS011;73195;47.532;19.082;2024-01-06T02:15:36;27.07;;;14.37;;
75847;SDS011;73195;47.532;19.082;2024-01-06T02:18:04;29.48;;;15.13;;
75847;SDS011;73195;47.532;19.082;2024-01-06T02:20:31;31.00;;;14.85;;
75847;SDS011;73195;47.532;19.082;2024-01-06T02:23:00;29.37;;;15.05;;
75847;SDS011;73195;47.532;19.082;2024-01-06T02:25:28;29.90;;;15.02;;
75847;SDS011;73195;47.532;19.082;2024-01-06T02:27:55;27.33;;;13.77;;
75847;SDS011;73195;47.532;19.082;2024-01-06T02:30:23;27.90;;;14.93;;
75847;SDS011;73195;47.532;19.082;2024-01-06T02:32:50;27.50;;;14.85;;
75847;SDS011;73195;47.532;19.082;2024-01-06T02:35:17;27.95;;;14.93;;
75847;SDS011;73195;47.532;19.082;2024-01-06T02:37:45;28.62;;;15.15;;
75847;SDS011;73195;47.532;19.082;2024-01-06T02:40:13;29.40;;;14.30;;
75847;SDS011;73195;47.532;19.082;2024-01-06T02:42:40;28.40;;;14.75;;
75847;SDS011;73195;47.532;19.082;2024-01-06T02:45:07;29.23;;;14.13;;
75847;SDS011;73195;47.532;19.082;2024-01-06T02:47:36;30.05;;;14.38;;
75847;SDS011;73195;47.532;19.082;2024-01-06T02:50:03;27.40;;;14.38;;
75847;SDS011;73195;47.532;19.082;2024-01-06T02:52:31;27.60;;;14.47;;
75847;SDS011;73195;47.532;19.082;2024-01-06T02:54:58;30.25;;;14.75;;
75847;SDS011;73195;47.532;19.082;2024-01-06T02:57:27;26.73;;;14.57;;
75847;SDS011;73195;47.532;19.082;2024-01-06T02:59:54;27.83;;;13.93;;
75847;SDS011;73195;47.532;19.082;2024-01-06T03:02:21;29.35;;;14.05;;
75847;SDS011;73195;47.532;19.082;2024-01-06T03:04:48;30.30;;;14.00;;
75847;SDS011;73195;47.532;19.082;2024-01-06T03:07:16;28.02;;;13.75;;
75847;SDS011;73195;47.532;19.082;2024-01-06T03:09:43;30.48;;;14.95;;
75847;SDS011;73195;47.532;19.082;2024-01-06T03:12:10;27.37;;;14.07;;
75847;SDS011;73195;47.532;19.082;2024-01-06T03:14:38;27.37;;;14.25;;
75847;SDS011;73195;47.532;19.082;2024-01-06T03:17:06;27.20;;;13.97;;
75847;SDS011;73195;47.532;19.082;2024-01-06T03:19:35;25.45;;;13.35;;
75847;SDS011;73195;47.532;19.082;2024-01-06T03:22:03;26.48;;;13.82;;
75847;SDS011;73195;47.532;19.082;2024-01-06T03:24:30;27.40;;;13.93;;
75847;SDS011;73195;47.532;19.082;2024-01-06T03:26:57;26.70;;;14.02;;
75847;SDS011;73195;47.532;19.082;2024-01-06T03:29:25;28.17;;;13.53;;
75847;SDS011;73195;47.532;19.082;2024-01-06T03:31:54;27.10;;;13.68;;
75847;SDS011;73195;47.532;19.082;2024-01-06T03:34:21;25.88;;;13.57;;
75847;SDS011;73195;47.532;19.082;2024-01-06T03:36:48;27.80;;;14.00;;
75847;SDS011;73195;47.532;19.082;2024-01-06T03:39:15;27.92;;;13.60;;
75847;SDS011;73195;47.532;19.082;2024-01-06T03:41:42;25.53;;;13.23;;
75847;SDS011;73195;47.532;19.082;2024-01-06T03:44:09;27.65;;;13.98;;
75847;SDS011;73195;47.532;19.082;2024-01-06T03:46:37;24.65;;;13.65;;
75847;SDS011;73195;47.532;19.082;2024-01-06T03:49:05;26.12;;;13.30;;
75847;SDS011;73195;47.532;19.082;2024-01-06T03:51:32;27.15;;;14.18;;
75847;SDS011;73195;47.532;19.082;2024-01-06T03:54:00;24.60;;;13.53;;
75847;SDS011;73195;47.532;19.082;2024-01-06T03:56:27;27.02;;;12.98;;
75847;SDS011;73195;47.532;19.082;2024-01-06T03:58:53;25.48;;;13.40;;
75847;SDS011;73195;47.532;19.082;2024-01-06T04:01:21;27.37;;;12.77;;
75847;SDS011;73195;47.532;19.082;2024-01-06T04:03:48;25.00;;;12.85;;
75847;SDS011;73195;47.532;19.082;2024-01-06T04:06:17;30.27;;;13.37;;
75847;SDS011;73195;47.532;19.082;2024-01-06T04:08:44;27.35;;;13.00;;
75847;SDS011;73195;47.532;19.082;2024-01-06T04:11:12;26.60;;;12.80;;
75847;SDS011;73195;47.532;19.082;2024-01-06T04:13:39;23.20;;;12.63;;
75847;SDS011;73195;47.532;19.082;2024-01-06T04:16:06;25.05;;;12.95;;
75847;SDS011;73195;47.532;19.082;2024-01-06T04:18:33;24.63;;;13.00;;
75847;SDS011;73195;47.532;19.082;2024-01-06T04:21:01;24.00;;;13.00;;
75847;SDS011;73195;47.532;19.082;2024-01-06T04:23:29;25.45;;;12.65;;
75847;SDS011;73195;47.532;19.082;2024-01-06T04:25:57;24.83;;;12.80;;
75847;SDS011;73195;47.532;19.082;2024-01-06T04:28:24;26.95;;;13.23;;
75847;SDS011;73195;47.532;19.082;2024-01-06T04:30:51;24.53;;;13.33;;
75847;SDS011;73195;47.532;19.082;2024-01-06T04:33:18;22.37;;;12.32;;
75847;SDS011;73195;47.532;19.082;2024-01-06T04:35:46;25.90;;;13.45;;
75847;SDS011;73195;47.532;19.082;2024-01-06T04:38:13;25.42;;;13.07;;
75847;SDS011;73195;47.532;19.082;2024-01-06T04:40:42;24.42;;;12.88;;
75847;SDS011;73195;47.532;19.082;2024-01-06T04:43:09;24.57;;;12.20;;
75847;SDS011;73195;47.532;19.082;2024-01-06T04:45:36;23.70;;;12.60;;
75847;SDS011;73195;47.532;19.082;2024-01-06T04:48:04;25.70;;;12.73;;
75847;SDS011;73195;47.532;19.082;2024-01-06T04:50:32;23.48;;;12.52;;
75847;SDS011;73195;47.532;19.082;2024-01-06T04:52:59;23.20;;;12.20;;
75847;SDS011;73195;47.532;19.082;2024-01-06T04:55:26;22.57;;;12.03;;
75847;SDS011;73195;47.532;19.082;2024-01-06T04:57:55;25.80;;;13.00;;
75847;SDS011;73195;47.532;19.082;2024-01-06T05:00:22;23.12;;;12.40;;
75847;SDS011;73195;47.532;19.082;2024-01-06T05:02:51;22.15;;;11.98;;
75847;SDS011;73195;47.532;19.082;2024-01-06T05:05:18;22.48;;;12.20;;
75847;SDS011;73195;47.532;19.082;2024-01-06T05:07:45;24.73;;;12.37;;
75847;SDS011;73195;47.532;19.082;2024-01-06T05:10:12;21.58;;;12.55;;
75847;SDS011;73195;47.532;19.082;2024-01-06T05:12:39;25.77;;;12.90;;
75847;SDS011;73195;47.532;19.082;2024-01-06T05:15:08;20.85;;;12.13;;
75847;SDS011;73195;47.532;19.082;2024-01-06T05:17:36;25.35;;;12.75;;
75847;SDS011;73195;47.532;19.082;2024-01-06T05:20:03;24.23;;;12.77;;
75847;SDS011;73195;47.532;19.082;2024-01-06T05:22:32;23.87;;;12.40;;
75847;SDS011;73195;47.532;19.082;2024-01-06T05:24:59;26.15;;;12.60;;
75847;SDS011;73195;47.532;19.082;2024-01-06T05:27:28;23.85;;;12.48;;
75847;SDS011;73195;47.532;19.082;2024-01-06T05:29:55;22.90;;;12.68;;
75847;SDS011;73195;47.532;19.082;2024-01-06T05:32:23;24.20;;;12.40;;
75847;SDS011;73195;47.532;19.082;2024-01-06T05:34:50;23.67;;;11.90;;
75847;SDS011;73195;47.532;19.082;2024-01-06T05:37:17;23.62;;;12.80;;
75847;SDS011;73195;47.532;19.082;2024-01-06T05:39:45;22.83;;;11.77;;
75847;SDS011;73195;47.532;19.082;2024-01-06T05:42:12;23.83;;;11.93;;
75847;SDS011;73195;47.532;19.082;2024-01-06T05:44:40;25.07;;;12.30;;
75847;SDS011;73195;47.532;19.082;2024-01-06T05:47:07;24.12;;;12.10;;
75847;SDS011;73195;47.532;19.082;2024-01-06T05:49:36;25.75;;;12.63;;
75847;SDS011;73195;47.532;19.082;2024-01-06T05:52:03;24.12;;;12.68;;
75847;SDS011;73195;47.532;19.082;2024-01-06T05:54:30;22.92;;;11.98;;
75847;SDS011;73195;47.532;19.082;2024-01-06T05:56:58;23.90;;;11.80;;
75847;SDS011;73195;47.532;19.082;2024-01-06T05:59:25;23.75;;;12.30;;
75847;SDS011;73195;47.532;19.082;2024-01-06T06:01:52;24.25;;;12.80;;
75847;SDS011;73195;47.532;19.082;2024-01-06T06:04:19;20.73;;;11.15;;
75847;SDS011;73195;47.532;19.082;2024-01-06T06:06:47;22.13;;;11.80;;
75847;SDS011;73195;47.532;19.082;2024-01-06T06:09:15;21.40;;;12.03;;
75847;SDS011;73195;47.532;19.082;2024-01-06T06:11:42;21.23;;;11.90;;
75847;SDS011;73195;47.532;19.082;2024-01-06T06:14:09;28.62;;;12.52;;
75847;SDS011;73195;47.532;19.082;2024-01-06T06:16:36;25.90;;;11.68;;
75847;SDS011;73195;47.532;19.082;2024-01-06T06:19:03;23.70;;;12.00;;
75847;SDS011;73195;47.532;19.082;2024-01-06T06:21:30;22.03;;;11.50;;
75847;SDS011;73195;47.532;19.082;2024-01-06T06:23:59;22.75;;;11.30;;
75847;SDS011;73195;47.532;19.082;2024-01-06T06:26:26;19.40;;;10.77;;
75847;SDS011;73195;47.532;19.082;2024-01-06T06:28:54;19.85;;;11.05;;
75847;SDS011;73195;47.532;19.082;2024-01-06T06:31:21;21.85;;;12.00;;
75847;SDS011;73195;47.532;19.082;2024-01-06T06:33:48;21.70;;;11.70;;
75847;SDS011;73195;47.532;19.082;2024-01-06T06:36:16;21.65;;;11.65;;
75847;SDS011;73195;47.532;19.082;2024-01-06T06:38:44;19.02;;;11.30;;
75847;SDS011;73195;47.532;19.082;2024-01-06T06:41:12;19.92;;;11.30;;
75847;SDS011;73195;47.532;19.082;2024-01-06T06:43:40;24.55;;;11.50;;
75847;SDS011;73195;47.532;19.082;2024-01-06T06:46:08;21.80;;;11.20;;
75847;SDS011;73195;47.532;19.082;2024-01-06T06:48:35;19.87;;;11.45;;
75847;SDS011;73195;47.532;19.082;2024-01-06T06:51:02;20.77;;;11.68;;
75847;SDS011;73195;47.532;19.082;2024-01-06T06:53:30;21.75;;;11.02;;
75847;SDS011;73195;47.532;19.082;2024-01-06T06:55:57;20.67;;;10.68;;
75847;SDS011;73195;47.532;19.082;2024-01-06T06:58:25;21.93;;;11.50;;
75847;SDS011;73195;47.532;19.082;2024-01-06T07:00:53;19.77;;;10.77;;
75847;SDS011;73195;47.532;19.082;2024-01-06T07:03:20;19.95;;;10.70;;
75847;SDS011;73195;47.532;19.082;2024-01-06T07:05:47;20.02;;;10.88;;
75847;SDS011;73195;47.532;19.082;2024-01-06T07:08:13;22.70;;;10.95;;
75847;SDS011;73195;47.532;19.082;2024-01-06T07:10:41;22.37;;;10.93;;
75847;SDS011;73195;47.532;19.082;2024-01-06T07:13:08;21.33;;;10.65;;
75847;SDS011;73195;47.532;19.082;2024-01-06T07:15:36;22.75;;;10.52;;
75847;SDS011;73195;47.532;19.082;2024-01-06T07:18:04;18.33;;;10.30;;
75847;SDS011;73195;47.532;19.082;2024-01-06T07:20:32;20.83;;;10.70;;
75847;SDS011;73195;47.532;19.082;2024-01-06T07:22:59;20.57;;;10.23;;
75847;SDS011;73195;47.532;19.082;2024-01-06T07:25:28;18.52;;;10.05;;
75847;SDS011;73195;47.532;19.082;2024-01-06T07:27:56;19.20;;;9.43;;
75847;SDS011;73195;47.532;19.082;2024-01-06T07:30:24;19.55;;;9.57;;
75847;SDS011;73195;47.532;19.082;2024-01-06T07:32:52;17.25;;;9.30;;
75847;SDS011;73195;47.532;19.082;2024-01-06T07:35:20;19.30;;;10.57;;
75847;SDS011;73195;47.532;19.082;2024-01-06T07:37:47;22.33;;;9.73;;
75847;SDS011;73195;47.532;19.082;2024-01-06T07:40:14;18.15;;;10.13;;
75847;SDS011;73195;47.532;19.082;2024-01-06T07:42:42;19.70;;;9.18;;
75847;SDS011;73195;47.532;19.082;2024-01-06T07:45:09;19.10;;;9.60;;
75847;SDS011;73195;47.532;19.082;2024-01-06T07:47:36;20.87;;;10.00;;
75847;SDS011;73195;47.532;19.082;2024-01-06T07:50:05;20.17;;;9.80;;
75847;SDS011;73195;47.532;19.082;2024-01-06T07:52:34;18.35;;;9.57;;
75847;SDS011;73195;47.532;19.082;2024-01-06T07:55:01;18.20;;;9.75;;
75847;SDS011;73195;47.532;19.082;2024-01-06T07:57:29;17.50;;;9.27;;
75847;SDS011;73195;47.532;19.082;2024-01-06T07:59:56;17.53;;;9.07;;
75847;SDS011;73195;47.532;19.082;2024-01-06T08:02:24;18.10;;;9.30;;
75847;SDS011;73195;47.532;19.082;2024-01-06T08:04:51;19.50;;;10.02;;
75847;SDS011;73195;47.532;19.082;2024-01-06T08:07:20;19.30;;;9.32;;
75847;SDS011;73195;47.532;19.082;2024-01-06T08:09:47;18.02;;;9.60;;
75847;SDS011;73195;47.532;19.082;2024-01-06T08:12:15;17.87;;;9.83;;
75847;SDS011;73195;47.532;19.082;2024-01-06T08:14:42;17.60;;;9.20;;
75847;SDS011;73195;47.532;19.082;2024-01-06T08:17:09;20.17;;;9.48;;
75847;SDS011;73195;47.532;19.082;2024-01-06T08:19:36;20.05;;;9.55;;
75847;SDS011;73195;47.532;19.082;2024-01-06T08:22:03;21.80;;;9.57;;
75847;SDS011;73195;47.532;19.082;2024-01-06T08:24:32;18.00;;;10.23;;
75847;SDS011;73195;47.532;19.082;2024-01-06T08:26:59;20.05;;;9.25;;
75847;SDS011;73195;47.532;19.082;2024-01-06T08:29:26;17.42;;;8.82;;
75847;SDS011;73195;47.532;19.082;2024-01-06T08:31:53;17.60;;;8.93;;
75847;SDS011;73195;47.532;19.082;2024-01-06T08:34:24;16.55;;;8.48;;
75847;SDS011;73195;47.532;19.082;2024-01-06T08:36:51;16.87;;;8.93;;
75847;SDS011;73195;47.532;19.082;2024-01-06T08:39:18;16.25;;;8.77;;
75847;SDS011;73195;47.532;19.082;2024-01-06T08:41:49;17.15;;;8.98;;
75847;SDS011;73195;47.532;19.082;2024-01-06T08:44:16;17.12;;;9.25;;
75847;SDS011;73195;47.532;19.082;2024-01-06T08:46:43;15.35;;;8.60;;
75847;SDS011;73195;47.532;19.082;2024-01-06T08:49:10;18.47;;;9.13;;
75847;SDS011;73195;47.532;19.082;2024-01-06T08:51:37;16.00;;;8.77;;
75847;SDS011;73195;47.532;19.082;2024-01-06T08:54:04;18.62;;;9.02;;
75847;SDS011;73195;47.532;19.082;2024-01-06T08:56:32;17.77;;;9.02;;
75847;SDS011;73195;47.532;19.082;2024-01-06T08:59:01;16.42;;;8.65;;
75847;SDS011;73195;47.532;19.082;2024-01-06T09:01:28;16.97;;;8.60;;
75847;SDS011;73195;47.532;19.082;2024-01-06T09:03:57;18.02;;;8.38;;
75847;SDS011;73195;47.532;19.082;2024-01-06T09:06:24;16.77;;;8.70;;
75847;SDS011;73195;47.532;19.082;2024-01-06T09:08:51;19.30;;;8.30;;
75847;SDS011;73195;47.532;19.082;2024-01-06T09:11:18;16.02;;;7.95;;
75847;SDS011;73195;47.532;19.082;2024-01-06T09:13:45;18.47;;;8.70;;
75847;SDS011;73195;47.532;19.082;2024-01-06T09:16:13;16.70;;;8.13;;
75847;SDS011;73195;47.532;19.082;2024-01-06T09:18:41;16.48;;;8.50;;
75847;SDS011;73195;47.532;19.082;2024-01-06T09:21:08;16.98;;;8.63;;
75847;SDS011;73195;47.532;19.082;2024-01-06T09:23:35;16.85;;;8.85;;
75847;SDS011;73195;47.532;19.082;2024-01-06T09:26:02;15.53;;;7.60;;
75847;SDS011;73195;47.532;19.082;2024-01-06T09:28:30;15.30;;;7.95;;
75847;SDS011;73195;47.532;19.082;2024-01-06T09:30:57;15.93;;;8.13;;
75847;SDS011;73195;47.532;19.082;2024-01-06T09:33:25;13.18;;;7.70;;
75847;SDS011;73195;47.532;19.082;2024-01-06T09:35:52;14.82;;;7.75;;
75847;SDS011;73195;47.532;19.082;2024-01-06T09:38:19;16.07;;;7.80;;
75847;SDS011;73195;47.532;19.082;2024-01-06T09:40:47;15.88;;;7.72;;
75847;SDS011;73195;47.532;19.082;2024-01-06T09:43:15;13.55;;;8.05;;
75847;SDS011;73195;47.532;19.082;2024-01-06T09:45:42;15.50;;;8.07;;
75847;SDS011;73195;47.532;19.082;2024-01-06T09:48:11;19.15;;;8.35;;
75847;SDS011;73195;47.532;19.082;2024-01-06T09:50:41;17.87;;;8.50;;
75847;SDS011;73195;47.532;19.082;2024-01-06T09:53:10;17.37;;;8.38;;
75847;SDS011;73195;47.532;19.082;2024-01-06T09:55:38;16.27;;;8.00;;
75847;SDS011;73195;47.532;19.082;2024-01-06T09:58:05;15.88;;;8.02;;
75847;SDS011;73195;47.532;19.082;2024-01-06T10:00:32;17.62;;;8.73;;
75847;SDS011;73195;47.532;19.082;2024-01-06T10:03:00;18.10;;;8.73;;
75847;SDS011;73195;47.532;19.082;2024-01-06T10:05:27;15.32;;;8.48;;
75847;SDS011;73195;47.532;19.082;2024-01-06T10:07:55;15.43;;;8.35;;
75847;SDS011;73195;47.532;19.082;2024-01-06T10:10:23;17.33;;;8.75;;
75847;SDS011;73195;47.532;19.082;2024-01-06T10:12:52;17.02;;;8.45;;
75847;SDS011;73195;47.532;19.082;2024-01-06T10:15:20;15.47;;;7.97;;
75847;SDS011;73195;47.532;19.082;2024-01-06T10:17:48;16.90;;;8.30;;
75847;SDS011;73195;47.532;19.082;2024-01-06T10:20:15;19.27;;;9.05;;
75847;SDS011;73195;47.532;19.082;2024-01-06T10:22:45;18.92;;;8.68;;
75847;SDS011;73195;47.532;19.082;2024-01-06T10:25:14;16.90;;;9.05;;
75847;SDS011;73195;47.532;19.082;2024-01-06T10:27:41;18.73;;;8.70;;
75847;SDS011;73195;47.532;19.082;2024-01-06T10:30:09;16.80;;;8.27;;
75847;SDS011;73195;47.532;19.082;2024-01-06T10:32:38;17.85;;;8.73;;
75847;SDS011;73195;47.532;19.082;2024-01-06T10:35:06;17.48;;;8.90;;
75847;SDS011;73195;47.532;19.082;2024-01-06T10:37:33;16.35;;;8.40;;
75847;SDS011;73195;47.532;19.082;2024-01-06T10:40:07;17.03;;;8.33;;
75847;SDS011;73195;47.532;19.082;2024-01-06T10:42:37;16.85;;;8.63;;
75847;SDS011;73195;47.532;19.082;2024-01-06T10:45:06;17.62;;;9.20;;
75847;SDS011;73195;47.532;19.082;2024-01-06T10:47:34;17.62;;;8.90;;
75847;SDS011;73195;47.532;19.082;2024-01-06T10:50:02;17.02;;;9.52;;
75847;SDS011;73195;47.532;19.082;2024-01-06T10:52:30;19.33;;;9.50;;
75847;SDS011;73195;47.532;19.082;2024-01-06T10:54:57;18.02;;;9.00;;
75847;SDS011;73195;47.532;19.082;2024-01-06T10:57:25;21.80;;;9.38;;
75847;SDS011;73195;47.532;19.082;2024-01-06T10:59:55;17.77;;;8.60;;
75847;SDS011;73195;47.532;19.082;2024-01-06T11:02:24;16.73;;;8.57;;
75847;SDS011;73195;47.532;19.082;2024-01-06T11:04:52;18.63;;;9.00;;
75847;SDS011;73195;47.532;19.082;2024-01-06T11:07:20;15.95;;;8.57;;
75847;SDS011;73195;47.532;19.082;2024-01-06T11:09:50;15.85;;;8.68;;
75847;SDS011;73195;47.532;19.082;2024-01-06T11:12:18;17.23;;;8.60;;
75847;SDS011;73195;47.532;19.082;2024-01-06T11:14:46;18.75;;;8.82;;
75847;SDS011;73195;47.532;19.082;2024-01-06T11:17:14;16.87;;;8.47;;
75847;SDS011;73195;47.532;19.082;2024-01-06T11:20:19;16.30;;;8.27;;
75847;SDS011;73195;47.532;19.082;2024-01-06T11:22:46;18.35;;;9.30;;
75847;SDS011;73195;47.532;19.082;2024-01-06T11:25:14;16.67;;;8.82;;
75847;SDS011;73195;47.532;19.082;2024-01-06T11:27:42;17.55;;;9.18;;
75847;SDS011;73195;47.532;19.082;2024-01-06T11:30:18;16.43;;;8.60;;
75847;SDS011;73195;47.532;19.082;2024-01-06T11:32:48;17.62;;;9.25;;
75847;SDS011;73195;47.532;19.082;2024-01-06T11:35:15;19.12;;;8.88;;
75847;SDS011;73195;47.532;19.082;2024-01-06T11:40:31;16.23;;;8.85;;
75847;SDS011;73195;47.532;19.082;2024-01-06T11:43:00;17.63;;;9.13;;
75847;SDS011;73195;47.532;19.082;2024-01-06T11:45:29;15.45;;;8.48;;
75847;SDS011;73195;47.532;19.082;2024-01-06T11:47:59;16.40;;;8.90;;
75847;SDS011;73195;47.532;19.082;2024-01-06T11:50:28;20.70;;;9.23;;
75847;SDS011;73195;47.532;19.082;2024-01-06T11:52:55;15.85;;;9.00;;
75847;SDS011;73195;47.532;19.082;2024-01-06T11:55:23;14.87;;;8.67;;
75847;SDS011;73195;47.532;19.082;2024-01-06T11:57:53;17.83;;;8.88;;
75847;SDS011;73195;47.532;19.082;2024-01-06T12:00:21;18.35;;;9.60;;
75847;SDS011;73195;47.532;19.082;2024-01-06T12:02:49;18.02;;;8.90;;
75847;SDS011;73195;47.532;19.082;2024-01-06T12:05:18;17.00;;;9.98;;
75847;SDS011;73195;47.532;19.082;2024-01-06T12:07:53;18.13;;;9.47;;
75847;SDS011;73195;47.532;19.082;2024-01-06T12:10:21;18.67;;;9.38;;
75847;SDS011;73195;47.532;19.082;2024-01-06T12:12:54;18.35;;;9.40;;
75847;SDS011;73195;47.532;19.082;2024-01-06T12:15:25;18.52;;;9.40;;
75847;SDS011;73195;47.532;19.082;2024-01-06T12:17:52;21.02;;;10.48;;
75847;SDS011;73195;47.532;19.082;2024-01-06T12:20:22;17.60;;;9.40;;
75847;SDS011;73195;47.532;19.082;2024-01-06T12:22:50;17.40;;;9.85;;
75847;SDS011;73195;47.532;19.082;2024-01-06T12:25:18;15.80;;;9.45;;
75847;SDS011;73195;47.532;19.082;2024-01-06T12:27:47;17.83;;;9.48;;
75847;SDS011;73195;47.532;19.082;2024-01-06T12:30:15;21.10;;;9.68;;
75847;SDS011;73195;47.532;19.082;2024-01-06T12:32:44;15.53;;;9.27;;
75847;SDS011;73195;47.532;19.082;2024-01-06T12:35:12;16.27;;;9.77;;
75847;SDS011;73195;47.532;19.082;2024-01-06T12:37:42;20.50;;;10.68;;
75847;SDS011;73195;47.532;19.082;2024-01-06T12:40:10;19.20;;;10.82;;
75847;SDS011;73195;47.532;19.082;2024-01-06T12:42:38;21.45;;;10.32;;
75847;SDS011;73195;47.532;19.082;2024-01-06T12:45:06;19.30;;;9.77;;
75847;SDS011;73195;47.532;19.082;2024-01-06T12:47:34;18.60;;;10.35;;
75847;SDS011;73195;47.532;19.082;2024-01-06T12:50:00;19.75;;;10.43;;
75847;SDS011;73195;47.532;19.082;2024-01-06T12:52:28;21.08;;;10.23;;
75847;SDS011;73195;47.532;19.082;2024-01-06T12:54:56;17.85;;;9.88;;
75847;SDS011;73195;47.532;19.082;2024-01-06T12:57:23;18.17;;;9.53;;
75847;SDS011;73195;47.532;19.082;2024-01-06T12:59:50;21.73;;;10.70;;
75847;SDS011;73195;47.532;19.082;2024-01-06T13:02:17;17.37;;;9.98;;
75847;SDS011;73195;47.532;19.082;2024-01-06T13:04:46;18.37;;;9.80;;
75847;SDS011;73195;47.532;19.082;2024-01-06T13:07:13;17.67;;;10.45;;
75847;SDS011;73195;47.532;19.082;2024-01-06T13:09:41;17.90;;;9.87;;
75847;SDS011;73195;47.532;19.082;2024-01-06T13:12:09;17.70;;;9.63;;
75847;SDS011;73195;47.532;19.082;2024-01-06T13:14:36;19.35;;;10.20;;
75847;SDS011;73195;47.532;19.082;2024-01-06T13:17:04;21.33;;;11.20;;
75847;SDS011;73195;47.532;19.082;2024-01-06T13:19:31;20.70;;;11.02;;
75847;SDS011;73195;47.532;19.082;2024-01-06T13:21:59;19.20;;;10.80;;
75847;SDS011;73195;47.532;19.082;2024-01-06T13:24:26;19.10;;;10.68;;
75847;SDS011;73195;47.532;19.082;2024-01-06T13:26:54;21.60;;;11.02;;
75847;SDS011;73195;47.532;19.082;2024-01-06T13:29:22;22.48;;;11.43;;
75847;SDS011;73195;47.532;19.082;2024-01-06T13:31:49;19.70;;;11.52;;
75847;SDS011;73195;47.532;19.082;2024-01-06T13:34:17;20.37;;;11.30;;
75847;SDS011;73195;47.532;19.082;2024-01-06T13:36:45;24.40;;;12.13;;
75847;SDS011;73195;47.532;19.082;2024-01-06T13:39:11;22.23;;;11.45;;
75847;SDS011;73195;47.532;19.082;2024-01-06T13:41:45;21.98;;;11.23;;
75847;SDS011;73195;47.532;19.082;2024-01-06T13:44:13;20.80;;;11.27;;
75847;SDS011;73195;47.532;19.082;2024-01-06T13:46:41;26.97;;;13.33;;
75847;SDS011;73195;47.532;19.082;2024-01-06T13:49:10;26.00;;;14.00;;
75847;SDS011;73195;47.532;19.082;2024-01-06T13:51:37;24.42;;;12.45;;
75847;SDS011;73195;47.532;19.082;2024-01-06T13:54:04;24.60;;;12.48;;
75847;SDS011;73195;47.532;19.082;2024-01-06T13:56:32;22.00;;;11.43;;
75847;SDS011;73195;47.532;19.082;2024-01-06T13:58:59;28.53;;;15.27;;
75847;SDS011;73195;47.532;19.082;2024-01-06T14:01:26;33.17;;;16.52;;
75847;SDS011;73195;47.532;19.082;2024-01-06T14:03:55;22.98;;;12.45;;
75847;SDS011;73195;47.532;19.082;2024-01-06T14:06:24;20.73;;;11.38;;
75847;SDS011;73195;47.532;19.082;2024-01-06T14:08:51;23.15;;;12.02;;
75847;SDS011;73195;47.532;19.082;2024-01-06T14:11:18;23.80;;;12.07;;
75847;SDS011;73195;47.532;19.082;2024-01-06T14:13:45;22.17;;;11.50;;
75847;SDS011;73195;47.532;19.082;2024-01-06T14:16:14;20.98;;;11.57;;
75847;SDS011;73195;47.532;19.082;2024-01-06T14:18:41;22.13;;;11.60;;